sensor_id;sensor_type;location;lat;lon;timestamp;P1;durP1;ratioP1;P2;durP2;ratioP2
12900;SDS011;6518;50.930;5.344;2023-06-10T00:00:23;8.18;;;7.00;;
12900;SDS011;6518;50.930;5.344;2023-06-10T00:02:51;7.68;;;6.88;;
12900;SDS011;6518;50.930;5.344;2023-06-10T00:05:17;7.72;;;6.93;;
12900;SDS011;6518;50.930;5.344;2023-06-10T00:07:46;9.18;;;7.00;;
12900;SDS011;6518;50.930;5.344;2023-06-10T00:10:14;7.68;;;6.88;;
12900;SDS011;6518;50.930;5.344;2023-06-10T00:12:42;8.45;;;6.90;;
12900;SDS011;6518;50.930;5.344;2023-06-10T00:15:09;9.52;;;7.00;;
12900;SDS011;6518;50.930;5.344;2023-06-10T00:17:36;8.93;;;7.28;;
12900;SDS011;6518;50.930;5.344;2023-06-10T00:20:05;7.78;;;7.00;;
12900;SDS011;6518;50.930;5.344;2023-06-10T00:22:34;8.23;;;7.38;;
12900;SDS011;6518;50.930;5.344;2023-06-10T00:25:01;8.30;;;7.18;;
12900;SDS011;6518;50.930;5.344;2023-06-10T00:27:29;9.02;;;7.20;;
12900;SDS011;6518;50.930;5.344;2023-06-10T00:30:01;12.13;;;7.45;;
12900;SDS011;6518;50.930;5.344;2023-06-10T00:32:31;8.15;;;7.45;;
12900;SDS011;6518;50.930;5.344;2023-06-10T00:34:58;8.52;;;7.30;;
12900;SDS011;6518;50.930;5.344;2023-06-10T00:37:25;7.68;;;6.90;;
12900;SDS011;6518;50.930;5.344;2023-06-10T00:39:52;11.80;;;7.88;;
12900;SDS011;6518;50.930;5.344;2023-06-10T00:42:19;8.30;;;7.47;;
12900;SDS011;6518;50.930;5.344;2023-06-10T00:44:47;10.23;;;7.70;;
12900;SDS011;6518;50.930;5.344;2023-06-10T00:47:16;8.32;;;7.53;;
12900;SDS011;6518;50.930;5.344;2023-06-10T00:49:43;10.15;;;7.50;;
12900;SDS011;6518;50.930;5.344;2023-06-10T00:52:10;10.40;;;7.70;;
12900;SDS011;6518;50.930;5.344;2023-06-10T00:54:38;8.93;;;7.53;;
12900;SDS011;6518;50.930;5.344;2023-06-10T00:57:05;8.13;;;7.35;;
12900;SDS011;6518;50.930;5.344;2023-06-10T00:59:32;8.50;;;7.53;;
12900;SDS011;6518;50.930;5.344;2023-06-10T01:01:59;9.07;;;7.47;;
12900;SDS011;6518;50.930;5.344;2023-06-10T01:04:28;10.05;;;7.80;;
12900;SDS011;6518;50.930;5.344;2023-06-10T01:06:57;9.43;;;7.32;;
12900;SDS011;6518;50.930;5.344;2023-06-10T01:09:33;12.25;;;7.60;;
12900;SDS011;6518;50.930;5.344;2023-06-10T01:12:09;9.45;;;7.65;;
12900;SDS011;6518;50.930;5.344;2023-06-10T01:14:42;8.82;;;7.43;;
12900;SDS011;6518;50.930;5.344;2023-06-10T01:17:10;8.50;;;7.70;;
12900;SDS011;6518;50.930;5.344;2023-06-10T01:19:39;8.70;;;7.80;;
12900;SDS011;6518;50.930;5.344;2023-06-10T01:22:10;8.52;;;7.72;;
12900;SDS011;6518;50.930;5.344;2023-06-10T01:24:41;9.23;;;7.50;;
12900;SDS011;6518;50.930;5.344;2023-06-10T01:27:10;9.30;;;7.63;;
12900;SDS011;6518;50.930;5.344;2023-06-10T01:29:41;12.25;;;8.68;;
12900;SDS011;6518;50.930;5.344;2023-06-10T01:32:15;9.10;;;7.65;;
12900;SDS011;6518;50.930;5.344;2023-06-10T01:34:45;9.07;;;7.60;;
12900;SDS011;6518;50.930;5.344;2023-06-10T01:37:15;9.98;;;7.93;;
12900;SDS011;6518;50.930;5.344;2023-06-10T01:39:45;11.02;;;7.93;;
12900;SDS011;6518;50.930;5.344;2023-06-10T01:42:15;8.80;;;7.90;;
12900;SDS011;6518;50.930;5.344;2023-06-10T01:44:43;8.90;;;8.00;;
12900;SDS011;6518;50.930;5.344;2023-06-10T01:47:10;9.07;;;7.97;;
12900;SDS011;6518;50.930;5.344;2023-06-10T01:49:37;11.00;;;8.05;;
12900;SDS011;6518;50.930;5.344;2023-06-10T01:52:04;9.05;;;7.55;;
12900;SDS011;6518;50.930;5.344;2023-06-10T01:54:33;9.10;;;8.20;;
12900;SDS011;6518;50.930;5.344;2023-06-10T01:57:00;8.45;;;7.55;;
12900;SDS011;6518;50.930;5.344;2023-06-10T01:59:27;8.55;;;7.75;;
12900;SDS011;6518;50.930;5.344;2023-06-10T02:01:54;8.57;;;7.75;;
12900;SDS011;6518;50.930;5.344;2023-06-10T02:04:21;9.15;;;8.32;;
12900;SDS011;6518;50.930;5.344;2023-06-10T02:06:48;9.63;;;8.10;;
12900;SDS011;6518;50.930;5.344;2023-06-10T02:09:15;9.65;;;8.20;;
12900;SDS011;6518;50.930;5.344;2023-06-10T02:11:44;9.20;;;8.30;;
12900;SDS011;6518;50.930;5.344;2023-06-10T02:14:11;10.75;;;8.23;;
12900;SDS011;6518;50.930;5.344;2023-06-10T02:16:38;9.70;;;7.97;;
12900;SDS011;6518;50.930;5.344;2023-06-10T02:19:05;10.15;;;8.60;;
12900;SDS011;6518;50.930;5.344;2023-06-10T02:21:32;11.88;;;8.07;;
12900;SDS011;6518;50.930;5.344;2023-06-10T02:24:00;13.63;;;8.95;;
12900;SDS011;6518;50.930;5.344;2023-06-10T02:26:27;10.77;;;8.13;;
12900;SDS011;6518;50.930;5.344;2023-06-10T02:28:55;9.38;;;8.45;;
12900;SDS011;6518;50.930;5.344;2023-06-10T02:31:22;10.10;;;8.02;;
12900;SDS011;6518;50.930;5.344;2023-06-10T02:33:50;12.30;;;8.10;;
12900;SDS011;6518;50.930;5.344;2023-06-10T02:36:17;10.35;;;9.05;;
12900;SDS011;6518;50.930;5.344;2023-06-10T02:38:44;11.00;;;9.07;;
12900;SDS011;6518;50.930;5.344;2023-06-10T02:41:10;10.40;;;8.60;;
12900;SDS011;6518;50.930;5.344;2023-06-10T02:43:37;11.15;;;8.88;;
12900;SDS011;6518;50.930;5.344;2023-06-10T02:46:05;9.43;;;8.43;;
12900;SDS011;6518;50.930;5.344;2023-06-10T02:48:39;9.75;;;8.85;;
12900;SDS011;6518;50.930;5.344;2023-06-10T02:51:07;9.57;;;8.68;;
12900;SDS011;6518;50.930;5.344;2023-06-10T02:53:34;11.23;;;8.35;;
12900;SDS011;6518;50.930;5.344;2023-06-10T02:56:01;11.55;;;8.75;;
12900;SDS011;6518;50.930;5.344;2023-06-10T02:58:28;11.00;;;8.15;;
12900;SDS011;6518;50.930;5.344;2023-06-10T03:00:55;8.82;;;8.02;;
12900;SDS011;6518;50.930;5.344;2023-06-10T03:03:24;9.98;;;8.95;;
12900;SDS011;6518;50.930;5.344;2023-06-10T03:05:52;10.98;;;8.93;;
12900;SDS011;6518;50.930;5.344;2023-06-10T03:08:19;11.57;;;8.88;;
12900;SDS011;6518;50.930;5.344;2023-06-10T03:10:46;9.68;;;8.63;;
12900;SDS011;6518;50.930;5.344;2023-06-10T03:13:13;9.52;;;8.35;;
12900;SDS011;6518;50.930;5.344;2023-06-10T03:15:40;10.30;;;7.90;;
12900;SDS011;6518;50.930;5.344;2023-06-10T03:18:07;10.55;;;9.45;;
12900;SDS011;6518;50.930;5.344;2023-06-10T03:20:35;10.38;;;8.45;;
12900;SDS011;6518;50.930;5.344;2023-06-10T03:23:03;10.80;;;9.30;;
12900;SDS011;6518;50.930;5.344;2023-06-10T03:25:32;10.38;;;9.35;;
12900;SDS011;6518;50.930;5.344;2023-06-10T03:27:59;11.18;;;9.20;;
12900;SDS011;6518;50.930;5.344;2023-06-10T03:30:26;11.07;;;9.10;;
12900;SDS011;6518;50.930;5.344;2023-06-10T03:32:53;10.27;;;9.18;;
12900;SDS011;6518;50.930;5.344;2023-06-10T03:35:20;10.80;;;8.88;;
12900;SDS011;6518;50.930;5.344;2023-06-10T03:37:48;10.88;;;9.27;;
12900;SDS011;6518;50.930;5.344;2023-06-10T03:40:15;10.52;;;9.52;;
12900;SDS011;6518;50.930;5.344;2023-06-10T03:42:42;13.45;;;9.43;;
12900;SDS011;6518;50.930;5.344;2023-06-10T03:45:10;12.20;;;9.48;;
12900;SDS011;6518;50.930;5.344;2023-06-10T03:47:37;10.88;;;9.40;;
12900;SDS011;6518;50.930;5.344;2023-06-10T03:50:06;10.35;;;9.25;;
12900;SDS011;6518;50.930;5.344;2023-06-10T03:52:34;10.23;;;8.90;;
12900;SDS011;6518;50.930;5.344;2023-06-10T03:55:03;10.93;;;9.85;;
12900;SDS011;6518;50.930;5.344;2023-06-10T03:57:30;10.32;;;9.40;;
12900;SDS011;6518;50.930;5.344;2023-06-10T03:59:57;11.93;;;9.27;;
12900;SDS011;6518;50.930;5.344;2023-06-10T04:02:24;9.85;;;8.85;;
12900;SDS011;6518;50.930;5.344;2023-06-10T04:04:51;10.85;;;8.88;;
12900;SDS011;6518;50.930;5.344;2023-06-10T04:07:18;10.95;;;9.85;;
12900;SDS011;6518;50.930;5.344;2023-06-10T04:09:46;14.07;;;9.55;;
12900;SDS011;6518;50.930;5.344;2023-06-10T04:12:14;10.63;;;9.48;;
12900;SDS011;6518;50.930;5.344;2023-06-10T04:14:41;11.30;;;9.55;;
12900;SDS011;6518;50.930;5.344;2023-06-10T04:17:08;10.68;;;9.43;;
12900;SDS011;6518;50.930;5.344;2023-06-10T04:19:36;10.57;;;9.55;;
12900;SDS011;6518;50.930;5.344;2023-06-10T04:22:02;12.60;;;10.43;;
12900;SDS011;6518;50.930;5.344;2023-06-10T04:24:30;10.15;;;9.02;;
12900;SDS011;6518;50.930;5.344;2023-06-10T04:26:57;12.23;;;10.55;;
12900;SDS011;6518;50.930;5.344;2023-06-10T04:29:25;11.40;;;10.02;;
12900;SDS011;6518;50.930;5.344;2023-06-10T04:31:52;10.73;;;9.73;;
12900;SDS011;6518;50.930;5.344;2023-06-10T04:34:19;10.65;;;9.65;;
12900;SDS011;6518;50.930;5.344;2023-06-10T04:36:46;12.88;;;10.38;;
12900;SDS011;6518;50.930;5.344;2023-06-10T04:39:13;11.50;;;9.40;;
12900;SDS011;6518;50.930;5.344;2023-06-10T04:41:41;11.18;;;9.70;;
12900;SDS011;6518;50.930;5.344;2023-06-10T04:44:08;11.55;;;10.30;;
12900;SDS011;6518;50.930;5.344;2023-06-10T04:46:37;11.20;;;10.15;;
12900;SDS011;6518;50.930;5.344;2023-06-10T04:49:04;10.25;;;9.35;;
12900;SDS011;6518;50.930;5.344;2023-06-10T04:51:31;10.27;;;9.25;;
12900;SDS011;6518;50.930;5.344;2023-06-10T04:53:58;11.48;;;8.98;;
12900;SDS011;6518;50.930;5.344;2023-06-10T04:56:27;11.05;;;8.60;;
12900;SDS011;6518;50.930;5.344;2023-06-10T04:58:55;11.88;;;9.70;;
12900;SDS011;6518;50.930;5.344;2023-06-10T05:01:22;9.45;;;8.57;;
12900;SDS011;6518;50.930;5.344;2023-06-10T05:03:50;10.57;;;9.13;;
12900;SDS011;6518;50.930;5.344;2023-06-10T05:06:17;9.90;;;8.85;;
12900;SDS011;6518;50.930;5.344;2023-06-10T05:08:44;10.80;;;9.13;;
12900;SDS011;6518;50.930;5.344;2023-06-10T05:11:11;15.02;;;9.00;;
12900;SDS011;6518;50.930;5.344;2023-06-10T05:13:38;9.48;;;8.57;;
12900;SDS011;6518;50.930;5.344;2023-06-10T05:16:06;10.00;;;9.00;;
12900;SDS011;6518;50.930;5.344;2023-06-10T05:18:33;9.23;;;8.43;;
12900;SDS011;6518;50.930;5.344;2023-06-10T05:21:02;10.40;;;8.88;;
12900;SDS011;6518;50.930;5.344;2023-06-10T05:23:29;11.85;;;8.95;;
12900;SDS011;6518;50.930;5.344;2023-06-10T05:25:55;11.02;;;8.90;;
12900;SDS011;6518;50.930;5.344;2023-06-10T05:28:23;13.13;;;8.82;;
12900;SDS011;6518;50.930;5.344;2023-06-10T05:30:50;10.48;;;9.05;;
12900;SDS011;6518;50.930;5.344;2023-06-10T05:33:17;10.18;;;9.07;;
12900;SDS011;6518;50.930;5.344;2023-06-10T05:35:44;10.30;;;8.63;;
12900;SDS011;6518;50.930;5.344;2023-06-10T05:38:13;9.45;;;8.55;;
12900;SDS011;6518;50.930;5.344;2023-06-10T05:40:39;10.02;;;9.07;;
12900;SDS011;6518;50.930;5.344;2023-06-10T05:43:06;9.98;;;9.02;;
12900;SDS011;6518;50.930;5.344;2023-06-10T05:45:34;10.05;;;8.48;;
12900;SDS011;6518;50.930;5.344;2023-06-10T05:48:01;11.38;;;9.05;;
12900;SDS011;6518;50.930;5.344;2023-06-10T05:50:28;11.02;;;8.73;;
12900;SDS011;6518;50.930;5.344;2023-06-10T05:52:55;10.68;;;9.40;;
12900;SDS011;6518;50.930;5.344;2023-06-10T05:55:24;9.30;;;8.40;;
12900;SDS011;6518;50.930;5.344;2023-06-10T05:57:57;9.23;;;7.60;;
12900;SDS011;6518;50.930;5.344;2023-06-10T06:00:25;10.40;;;8.63;;
12900;SDS011;6518;50.930;5.344;2023-06-10T06:02:51;10.73;;;8.88;;
12900;SDS011;6518;50.930;5.344;2023-06-10T06:05:19;9.98;;;8.60;;
12900;SDS011;6518;50.930;5.344;2023-06-10T06:07:46;11.75;;;9.23;;
12900;SDS011;6518;50.930;5.344;2023-06-10T06:10:13;11.88;;;8.40;;
12900;SDS011;6518;50.930;5.344;2023-06-10T06:12:41;9.93;;;8.60;;
12900;SDS011;6518;50.930;5.344;2023-06-10T06:15:08;10.30;;;8.57;;
12900;SDS011;6518;50.930;5.344;2023-06-10T06:17:36;10.90;;;8.50;;
12900;SDS011;6518;50.930;5.344;2023-06-10T06:20:03;14.45;;;8.75;;
12900;SDS011;6518;50.930;5.344;2023-06-10T06:22:31;9.43;;;8.52;;
12900;SDS011;6518;50.930;5.344;2023-06-10T06:24:58;12.18;;;8.90;;
12900;SDS011;6518;50.930;5.344;2023-06-10T06:27:25;9.85;;;8.50;;
12900;SDS011;6518;50.930;5.344;2023-06-10T06:29:53;9.10;;;8.10;;
12900;SDS011;6518;50.930;5.344;2023-06-10T06:32:20;11.27;;;8.55;;
12900;SDS011;6518;50.930;5.344;2023-06-10T06:34:47;10.98;;;8.77;;
12900;SDS011;6518;50.930;5.344;2023-06-10T06:37:19;10.60;;;8.27;;
12900;SDS011;6518;50.930;5.344;2023-06-10T06:39:47;9.02;;;8.10;;
12900;SDS011;6518;50.930;5.344;2023-06-10T06:42:14;9.77;;;8.82;;
12900;SDS011;6518;50.930;5.344;2023-06-10T06:44:41;8.95;;;8.02;;
12900;SDS011;6518;50.930;5.344;2023-06-10T06:47:09;12.52;;;8.40;;
12900;SDS011;6518;50.930;5.344;2023-06-10T06:49:36;9.52;;;8.63;;
12900;SDS011;6518;50.930;5.344;2023-06-10T06:52:03;9.73;;;8.63;;
12900;SDS011;6518;50.930;5.344;2023-06-10T06:54:31;9.98;;;8.27;;
12900;SDS011;6518;50.930;5.344;2023-06-10T06:56:57;11.40;;;7.80;;
12900;SDS011;6518;50.930;5.344;2023-06-10T06:59:24;12.32;;;7.07;;
12900;SDS011;6518;50.930;5.344;2023-06-10T07:01:51;10.05;;;7.18;;
12900;SDS011;6518;50.930;5.344;2023-06-10T07:04:20;8.35;;;7.45;;
12900;SDS011;6518;50.930;5.344;2023-06-10T07:06:47;8.52;;;7.32;;
12900;SDS011;6518;50.930;5.344;2023-06-10T07:09:14;8.95;;;7.28;;
12900;SDS011;6518;50.930;5.344;2023-06-10T07:11:41;11.30;;;8.32;;
12900;SDS011;6518;50.930;5.344;2023-06-10T07:14:08;9.77;;;7.18;;
12900;SDS011;6518;50.930;5.344;2023-06-10T07:16:35;10.43;;;7.60;;
12900;SDS011;6518;50.930;5.344;2023-06-10T07:19:02;9.98;;;7.15;;
12900;SDS011;6518;50.930;5.344;2023-06-10T07:21:30;13.52;;;8.10;;
12900;SDS011;6518;50.930;5.344;2023-06-10T07:23:59;13.18;;;7.78;;
12900;SDS011;6518;50.930;5.344;2023-06-10T07:26:25;12.13;;;7.80;;
12900;SDS011;6518;50.930;5.344;2023-06-10T07:28:52;12.05;;;7.65;;
12900;SDS011;6518;50.930;5.344;2023-06-10T07:31:19;10.23;;;7.72;;
12900;SDS011;6518;50.930;5.344;2023-06-10T07:33:46;9.55;;;7.20;;
12900;SDS011;6518;50.930;5.344;2023-06-10T07:36:13;8.38;;;7.38;;
12900;SDS011;6518;50.930;5.344;2023-06-10T07:38:41;10.07;;;7.50;;
12900;SDS011;6518;50.930;5.344;2023-06-10T07:41:08;9.05;;;7.93;;
12900;SDS011;6518;50.930;5.344;2023-06-10T07:43:36;16.95;;;8.48;;
12900;SDS011;6518;50.930;5.344;2023-06-10T07:46:03;10.43;;;7.25;;
12900;SDS011;6518;50.930;5.344;2023-06-10T07:48:30;10.38;;;7.72;;
12900;SDS011;6518;50.930;5.344;2023-06-10T07:50:57;11.05;;;7.53;;
12900;SDS011;6518;50.930;5.344;2023-06-10T07:53:24;11.05;;;7.50;;
12900;SDS011;6518;50.930;5.344;2023-06-10T07:55:52;13.85;;;8.02;;
12900;SDS011;6518;50.930;5.344;2023-06-10T07:58:20;11.73;;;7.50;;
12900;SDS011;6518;50.930;5.344;2023-06-10T08:00:47;12.80;;;8.95;;
12900;SDS011;6518;50.930;5.344;2023-06-10T08:03:14;13.98;;;8.77;;
12900;SDS011;6518;50.930;5.344;2023-06-10T08:05:41;16.77;;;8.23;;
12900;SDS011;6518;50.930;5.344;2023-06-10T08:08:08;10.32;;;8.10;;
12900;SDS011;6518;50.930;5.344;2023-06-10T08:10:35;10.98;;;7.18;;
12900;SDS011;6518;50.930;5.344;2023-06-10T08:13:03;7.82;;;7.05;;
12900;SDS011;6518;50.930;5.344;2023-06-10T08:15:30;10.98;;;6.68;;
12900;SDS011;6518;50.930;5.344;2023-06-10T08:17:57;10.27;;;6.97;;
12900;SDS011;6518;50.930;5.344;2023-06-10T08:20:24;9.30;;;7.05;;
12900;SDS011;6518;50.930;5.344;2023-06-10T08:22:51;9.00;;;7.13;;
12900;SDS011;6518;50.930;5.344;2023-06-10T08:25:18;8.98;;;6.80;;
12900;SDS011;6518;50.930;5.344;2023-06-10T08:27:47;12.20;;;7.20;;
12900;SDS011;6518;50.930;5.344;2023-06-10T08:30:17;7.57;;;6.78;;
12900;SDS011;6518;50.930;5.344;2023-06-10T08:32:44;8.13;;;7.10;;
12900;SDS011;6518;50.930;5.344;2023-06-10T08:35:11;8.48;;;6.90;;
12900;SDS011;6518;50.930;5.344;2023-06-10T08:37:38;11.65;;;6.70;;
12900;SDS011;6518;50.930;5.344;2023-06-10T08:40:05;10.13;;;7.30;;
12900;SDS011;6518;50.930;5.344;2023-06-10T08:42:36;11.18;;;6.63;;
12900;SDS011;6518;50.930;5.344;2023-06-10T08:45:05;8.85;;;6.72;;
12900;SDS011;6518;50.930;5.344;2023-06-10T08:47:39;12.63;;;7.22;;
12900;SDS011;6518;50.930;5.344;2023-06-10T08:50:10;10.40;;;6.80;;
12900;SDS011;6518;50.930;5.344;2023-06-10T08:52:37;14.75;;;7.32;;
12900;SDS011;6518;50.930;5.344;2023-06-10T08:55:09;10.60;;;7.28;;
12900;SDS011;6518;50.930;5.344;2023-06-10T08:57:38;7.95;;;6.90;;
12900;SDS011;6518;50.930;5.344;2023-06-10T09:00:08;8.90;;;6.82;;
12900;SDS011;6518;50.930;5.344;2023-06-10T09:02:35;14.30;;;7.60;;
12900;SDS011;6518;50.930;5.344;2023-06-10T09:05:04;12.23;;;10.73;;
12900;SDS011;6518;50.930;5.344;2023-06-10T09:07:32;9.10;;;7.32;;
12900;SDS011;6518;50.930;5.344;2023-06-10T09:10:00;7.53;;;6.72;;
12900;SDS011;6518;50.930;5.344;2023-06-10T09:12:30;8.55;;;7.18;;
12900;SDS011;6518;50.930;5.344;2023-06-10T09:14:56;12.65;;;7.32;;
12900;SDS011;6518;50.930;5.344;2023-06-10T09:17:23;11.43;;;6.80;;
12900;SDS011;6518;50.930;5.344;2023-06-10T09:19:51;8.32;;;6.65;;
12900;SDS011;6518;50.930;5.344;2023-06-10T09:22:21;10.27;;;6.85;;
12900;SDS011;6518;50.930;5.344;2023-06-10T09:24:49;9.15;;;6.53;;
12900;SDS011;6518;50.930;5.344;2023-06-10T09:27:16;7.47;;;6.78;;
12900;SDS011;6518;50.930;5.344;2023-06-10T09:29:46;7.82;;;6.03;;
12900;SDS011;6518;50.930;5.344;2023-06-10T09:32:17;8.40;;;6.63;;
12900;SDS011;6518;50.930;5.344;2023-06-10T09:34:45;8.25;;;6.97;;
12900;SDS011;6518;50.930;5.344;2023-06-10T09:37:12;8.07;;;6.88;;
12900;SDS011;6518;50.930;5.344;2023-06-10T09:39:47;7.00;;;6.03;;
12900;SDS011;6518;50.930;5.344;2023-06-10T09:42:29;6.78;;;6.13;;
12900;SDS011;6518;50.930;5.344;2023-06-10T09:44:59;7.00;;;6.30;;
12900;SDS011;6518;50.930;5.344;2023-06-10T09:47:26;7.50;;;6.32;;
12900;SDS011;6518;50.930;5.344;2023-06-10T09:49:53;6.88;;;5.63;;
12900;SDS011;6518;50.930;5.344;2023-06-10T09:52:23;7.82;;;6.05;;
12900;SDS011;6518;50.930;5.344;2023-06-10T09:54:52;6.35;;;5.75;;
12900;SDS011;6518;50.930;5.344;2023-06-10T09:57:20;7.75;;;6.18;;
12900;SDS011;6518;50.930;5.344;2023-06-10T09:59:47;8.10;;;6.22;;
12900;SDS011;6518;50.930;5.344;2023-06-10T10:02:18;9.20;;;6.45;;
12900;SDS011;6518;50.930;5.344;2023-06-10T10:04:45;6.93;;;5.97;;
12900;SDS011;6518;50.930;5.344;2023-06-10T10:07:13;8.73;;;6.32;;
12900;SDS011;6518;50.930;5.344;2023-06-10T10:09:40;8.02;;;5.97;;
12900;SDS011;6518;50.930;5.344;2023-06-10T10:12:10;8.23;;;6.28;;
12900;SDS011;6518;50.930;5.344;2023-06-10T10:14:38;8.05;;;5.68;;
12900;SDS011;6518;50.930;5.344;2023-06-10T10:17:10;8.65;;;5.82;;
12900;SDS011;6518;50.930;5.344;2023-06-10T10:19:40;6.60;;;5.97;;
12900;SDS011;6518;50.930;5.344;2023-06-10T10:22:14;6.70;;;5.80;;
12900;SDS011;6518;50.930;5.344;2023-06-10T10:24:45;6.47;;;5.85;;
12900;SDS011;6518;50.930;5.344;2023-06-10T10:27:18;9.05;;;6.28;;
12900;SDS011;6518;50.930;5.344;2023-06-10T10:29:48;9.48;;;5.35;;
12900;SDS011;6518;50.930;5.344;2023-06-10T10:32:20;8.00;;;5.68;;
12900;SDS011;6518;50.930;5.344;2023-06-10T10:34:53;8.80;;;5.85;;
12900;SDS011;6518;50.930;5.344;2023-06-10T10:37:30;9.18;;;6.03;;
12900;SDS011;6518;50.930;5.344;2023-06-10T10:39:57;9.82;;;5.53;;
12900;SDS011;6518;50.930;5.344;2023-06-10T10:42:27;7.53;;;5.70;;
12900;SDS011;6518;50.930;5.344;2023-06-10T10:44:55;8.43;;;5.55;;
12900;SDS011;6518;50.930;5.344;2023-06-10T10:47:22;6.72;;;5.70;;
12900;SDS011;6518;50.930;5.344;2023-06-10T10:49:54;6.47;;;5.57;;
12900;SDS011;6518;50.930;5.344;2023-06-10T10:52:24;8.70;;;5.47;;
12900;SDS011;6518;50.930;5.344;2023-06-10T10:54:52;9.07;;;5.40;;
12900;SDS011;6518;50.930;5.344;2023-06-10T10:57:20;7.75;;;5.88;;
12900;SDS011;6518;50.930;5.344;2023-06-10T10:59:54;6.07;;;4.72;;
12900;SDS011;6518;50.930;5.344;2023-06-10T11:05:04;10.23;;;5.40;;
12900;SDS011;6518;50.930;5.344;2023-06-10T11:07:32;12.30;;;5.70;;
12900;SDS011;6518;50.930;5.344;2023-06-10T11:10:01;7.03;;;6.32;;
12900;SDS011;6518;50.930;5.344;2023-06-10T11:15:25;6.95;;;4.93;;
12900;SDS011;6518;50.930;5.344;2023-06-10T11:18:14;10.38;;;6.15;;
12900;SDS011;6518;50.930;5.344;2023-06-10T11:20:53;6.90;;;5.38;;
12900;SDS011;6518;50.930;5.344;2023-06-10T11:26:12;6.60;;;5.20;;
12900;SDS011;6518;50.930;5.344;2023-06-10T11:28:40;7.50;;;4.78;;
12900;SDS011;6518;50.930;5.344;2023-06-10T11:31:18;7.78;;;5.53;;
12900;SDS011;6518;50.930;5.344;2023-06-10T11:33:46;7.43;;;5.72;;
12900;SDS011;6518;50.930;5.344;2023-06-10T11:36:14;5.85;;;5.20;;
12900;SDS011;6518;50.930;5.344;2023-06-10T11:38:40;8.52;;;5.88;;
12900;SDS011;6518;50.930;5.344;2023-06-10T11:41:08;13.13;;;5.70;;
12900;SDS011;6518;50.930;5.344;2023-06-10T11:43:36;6.80;;;5.15;;
12900;SDS011;6518;50.930;5.344;2023-06-10T11:46:03;8.05;;;5.70;;
12900;SDS011;6518;50.930;5.344;2023-06-10T11:48:34;7.85;;;6.43;;
12900;SDS011;6518;50.930;5.344;2023-06-10T11:51:05;8.75;;;4.80;;
12900;SDS011;6518;50.930;5.344;2023-06-10T11:53:32;7.50;;;5.15;;
12900;SDS011;6518;50.930;5.344;2023-06-10T11:55:59;6.63;;;4.75;;
12900;SDS011;6518;50.930;5.344;2023-06-10T11:58:26;6.60;;;5.10;;
12900;SDS011;6518;50.930;5.344;2023-06-10T12:00:53;7.43;;;5.20;;
12900;SDS011;6518;50.930;5.344;2023-06-10T12:03:23;9.02;;;5.30;;
12900;SDS011;6518;50.930;5.344;2023-06-10T12:05:58;6.43;;;4.80;;
12900;SDS011;6518;50.930;5.344;2023-06-10T12:08:26;7.57;;;4.88;;
12900;SDS011;6518;50.930;5.344;2023-06-10T12:10:54;5.75;;;5.10;;
12900;SDS011;6518;50.930;5.344;2023-06-10T12:13:22;8.63;;;5.13;;
12900;SDS011;6518;50.930;5.344;2023-06-10T12:15:50;7.35;;;4.93;;
12900;SDS011;6518;50.930;5.344;2023-06-10T12:18:17;6.65;;;4.95;;
12900;SDS011;6518;50.930;5.344;2023-06-10T12:20:44;5.90;;;5.07;;
12900;SDS011;6518;50.930;5.344;2023-06-10T12:23:13;6.30;;;4.93;;
12900;SDS011;6518;50.930;5.344;2023-06-10T12:25:49;7.00;;;5.03;;
12900;SDS011;6518;50.930;5.344;2023-06-10T12:28:16;7.00;;;5.45;;
12900;SDS011;6518;50.930;5.344;2023-06-10T12:30:46;10.90;;;5.25;;
12900;SDS011;6518;50.930;5.344;2023-06-10T12:33:16;5.30;;;4.80;;
12900;SDS011;6518;50.930;5.344;2023-06-10T12:35:46;5.95;;;5.03;;
12900;SDS011;6518;50.930;5.344;2023-06-10T12:38:18;6.53;;;5.20;;
12900;SDS011;6518;50.930;5.344;2023-06-10T12:40:49;9.75;;;5.82;;
12900;SDS011;6518;50.930;5.344;2023-06-10T12:43:19;8.18;;;5.20;;
12900;SDS011;6518;50.930;5.344;2023-06-10T12:45:46;7.78;;;5.00;;
12900;SDS011;6518;50.930;5.344;2023-06-10T12:48:17;5.68;;;5.03;;
12900;SDS011;6518;50.930;5.344;2023-06-10T12:50:46;7.03;;;4.78;;
12900;SDS011;6518;50.930;5.344;2023-06-10T12:53:18;6.60;;;5.28;;
12900;SDS011;6518;50.930;5.344;2023-06-10T12:55:46;5.88;;;5.00;;
12900;SDS011;6518;50.930;5.344;2023-06-10T12:58:13;6.10;;;5.38;;
12900;SDS011;6518;50.930;5.344;2023-06-10T13:00:40;7.97;;;5.18;;
12900;SDS011;6518;50.930;5.344;2023-06-10T13:03:07;6.88;;;5.07;;
12900;SDS011;6518;50.930;5.344;2023-06-10T13:05:35;5.30;;;4.70;;
12900;SDS011;6518;50.930;5.344;2023-06-10T13:08:04;8.18;;;5.25;;
12900;SDS011;6518;50.930;5.344;2023-06-10T13:10:33;6.32;;;4.72;;
12900;SDS011;6518;50.930;5.344;2023-06-10T13:13:00;5.35;;;4.55;;
12900;SDS011;6518;50.930;5.344;2023-06-10T13:15:27;4.93;;;4.47;;
12900;SDS011;6518;50.930;5.344;2023-06-10T13:17:54;6.57;;;5.30;;
12900;SDS011;6518;50.930;5.344;2023-06-10T13:20:21;6.32;;;5.00;;
12900;SDS011;6518;50.930;5.344;2023-06-10T13:22:48;6.38;;;4.93;;
12900;SDS011;6518;50.930;5.344;2023-06-10T13:25:15;7.75;;;5.00;;
12900;SDS011;6518;50.930;5.344;2023-06-10T13:27:43;6.32;;;5.03;;
12900;SDS011;6518;50.930;5.344;2023-06-10T13:30:10;10.70;;;5.38;;
12900;SDS011;6518;50.930;5.344;2023-06-10T13:32:38;5.93;;;4.78;;
12900;SDS011;6518;50.930;5.344;2023-06-10T13:35:05;7.50;;;4.93;;
12900;SDS011;6518;50.930;5.344;2023-06-10T13:37:32;5.93;;;4.82;;
12900;SDS011;6518;50.930;5.344;2023-06-10T13:39:59;5.07;;;4.57;;
12900;SDS011;6518;50.930;5.344;2023-06-10T13:42:27;6.38;;;5.13;;
12900;SDS011;6518;50.930;5.344;2023-06-10T13:44:56;4.90;;;4.30;;
12900;SDS011;6518;50.930;5.344;2023-06-10T13:47:22;6.85;;;5.10;;
12900;SDS011;6518;50.930;5.344;2023-06-10T13:49:49;5.20;;;4.68;;
12900;SDS011;6518;50.930;5.344;2023-06-10T13:52:16;6.97;;;5.18;;
12900;SDS011;6518;50.930;5.344;2023-06-10T13:54:43;6.95;;;5.40;;
12900;SDS011;6518;50.930;5.344;2023-06-10T13:57:10;6.75;;;5.30;;
12900;SDS011;6518;50.930;5.344;2023-06-10T13:59:37;5.72;;;5.03;;
12900;SDS011;6518;50.930;5.344;2023-06-10T14:02:05;6.47;;;4.68;;
12900;SDS011;6518;50.930;5.344;2023-06-10T14:04:32;6.15;;;4.50;;
12900;SDS011;6518;50.930;5.344;2023-06-10T14:06:59;5.88;;;4.53;;
12900;SDS011;6518;50.930;5.344;2023-06-10T14:09:26;7.45;;;5.03;;
12900;SDS011;6518;50.930;5.344;2023-06-10T14:11:53;6.63;;;4.53;;
12900;SDS011;6518;50.930;5.344;2023-06-10T14:14:20;8.18;;;5.03;;
12900;SDS011;6518;50.930;5.344;2023-06-10T14:16:47;8.77;;;5.40;;
12900;SDS011;6518;50.930;5.344;2023-06-10T14:19:15;9.23;;;5.60;;
12900;SDS011;6518;50.930;5.344;2023-06-10T14:21:42;6.90;;;4.78;;
12900;SDS011;6518;50.930;5.344;2023-06-10T14:24:09;7.03;;;5.22;;
12900;SDS011;6518;50.930;5.344;2023-06-10T14:26:36;4.90;;;4.43;;
12900;SDS011;6518;50.930;5.344;2023-06-10T14:29:03;6.43;;;4.70;;
12900;SDS011;6518;50.930;5.344;2023-06-10T14:31:30;7.53;;;5.03;;
12900;SDS011;6518;50.930;5.344;2023-06-10T14:33:58;5.10;;;4.60;;
12900;SDS011;6518;50.930;5.344;2023-06-10T14:36:27;8.23;;;5.18;;
12900;SDS011;6518;50.930;5.344;2023-06-10T14:38:54;5.32;;;4.57;;
12900;SDS011;6518;50.930;5.344;2023-06-10T14:41:22;5.07;;;4.57;;
12900;SDS011;6518;50.930;5.344;2023-06-10T14:43:48;11.25;;;5.18;;
12900;SDS011;6518;50.930;5.344;2023-06-10T14:46:15;6.32;;;4.80;;
12900;SDS011;6518;50.930;5.344;2023-06-10T14:48:42;5.28;;;4.70;;
12900;SDS011;6518;50.930;5.344;2023-06-10T14:51:09;6.57;;;4.97;;
12900;SDS011;6518;50.930;5.344;2023-06-10T14:53:37;5.93;;;5.20;;
12900;SDS011;6518;50.930;5.344;2023-06-10T14:56:04;5.20;;;4.57;;
12900;SDS011;6518;50.930;5.344;2023-06-10T14:58:31;6.70;;;4.78;;
12900;SDS011;6518;50.930;5.344;2023-06-10T15:00:58;6.28;;;4.90;;
12900;SDS011;6518;50.930;5.344;2023-06-10T15:03:25;5.70;;;5.00;;
12900;SDS011;6518;50.930;5.344;2023-06-10T15:05:52;5.47;;;4.80;;
12900;SDS011;6518;50.930;5.344;2023-06-10T15:08:19;6.63;;;4.97;;